Airfield :
LOGIN :

Register | Disclaimer

   EN    FR    IT 

 










Legend :    VFR   Marginal VFR   IFR   Intensive IFR   Very Intensive IFR
Visi :
Ceiling :
>= 8 km
>= 3000ft
5 to 8 km
1000 to 3000 ft
1500m to 5 km
500 to 1000 ft
800 to 1500m
200 to 500 ft
< 800m
< 200 ft
Symbols :   Thunderstorms  Fog  Heavy snow  Heavy precipitations  Wind > 20 kt
SIGMETs :     Misc.  Thunderstorms  Icing  Turbulence  Mountain Waves  Volcanic Ashes







- Airport Elevation : 10 ft
- IATA code : TTU


GMTN - Saniat R'Mel

CURRENT METAR :
  • 241700Z 06008KT 030V100 8000 NSC 26/20 Q1018 NOSIG

EXPIRED METARs :
  • 241600Z 06010KT 040V100 8000 NSC 26/20 Q1018 NOSIG
  • 241500Z 06011KT 8000 NSC 27/20 Q1018 NOSIG

TAF N/A
No reported NOTAMs for that airfield.
1 SIGMET reported for the Casablanca FIR (GMMM) :
 
Embedded thunderstorms
GMMM SIGMET A3 VALID 241530/241800 GMMC
GMMM CASABLANCA FIR EMBD TS OBS OF LINE N3000 W00516 - N3233 W00610 - N3123 W00949 - N2831 W00955 TOP FL350 MOV NW INTSF=



MET'MAP, your aeronautical weather chart ! - Copyright ORBIFLY December 2007 - Disclaimer

ORBIFLY MET'MAP TEAM :

Programming & Development : Alexandra Zaïnal
Concept & Development : Baudouin d'Aumeries
Co-Development & Prog : Marc-Olivier Méhu
Technical & hardware support : Manuel Goepfert

Contact : metmap@orbifly.com




SOURCES & CREDITS :

   NOAA